Time;durP1;ratioP1;P1;durP2;ratioP2;P2;SDS_P1;SDS_P2;PMS_P1;PMS_P2;Temp;Humidity;BMP_temperature;BMP_pressure;BME280_temperature;BME280_humidity;BME280_pressure;Samples;Min_cycle;Max_cycle;Signal;HPM_P1;HPM_P2
2023/01/22 00:01:04;;;;;;;15.32;9.02;;;2.40;99.90;;;;;;5021782;28;20037;-77
2023/01/22 00:03:29;;;;;;;13.02;8.73;;;2.40;99.90;;;;;;5034063;28;20080;-77
2023/01/22 00:05:55;;;;;;;15.90;8.85;;;2.30;99.90;;;;;;5053739;28;20101;-77
2023/01/22 00:08:21;;;;;;;14.50;8.48;;;2.40;99.90;;;;;;5036285;28;20544;-77
2023/01/22 00:10:51;;;;;;;14.43;8.82;;;2.30;99.90;;;;;;5032167;28;20512;-76
2023/01/22 00:13:17;;;;;;;16.10;10.32;;;2.30;99.90;;;;;;5037544;28;20134;-76
2023/01/22 00:15:43;;;;;;;16.15;10.00;;;2.20;99.90;;;;;;5038660;28;20045;-76
2023/01/22 00:18:09;;;;;;;17.95;11.05;;;2.70;99.90;;;;;;5002272;28;20090;-76
2023/01/22 00:20:35;;;;;;;17.25;10.85;;;2.20;99.90;;;;;;5055849;28;20056;-76
2023/01/22 00:23:00;;;;;;;17.92;10.82;;;2.20;99.90;;;;;;5049947;28;20033;-76
2023/01/22 00:25:26;;;;;;;18.38;10.77;;;3.30;99.90;;;;;;5037828;28;20068;-76
2023/01/22 00:27:52;;;;;;;16.60;10.73;;;2.10;99.90;;;;;;5036997;28;20045;-76
2023/01/22 00:30:18;;;;;;;18.15;10.55;;;2.00;99.90;;;;;;5044228;28;20519;-76
2023/01/22 00:32:45;;;;;;;17.73;11.18;;;2.00;99.90;;;;;;5055821;28;20037;-77
2023/01/22 00:35:11;;;;;;;18.60;11.45;;;1.90;99.90;;;;;;5009897;28;20055;-76
2023/01/22 00:37:36;;;;;;;20.00;12.40;;;1.90;99.90;;;;;;5017027;28;20463;-76
2023/01/22 00:40:03;;;;;;;21.13;12.32;;;2.80;99.90;;;;;;5033585;28;20088;-77
2023/01/22 00:42:28;;;;;;;19.42;12.40;;;1.80;99.90;;;;;;5033245;28;20067;-77
2023/01/22 00:44:54;;;;;;;17.67;12.32;;;1.70;99.90;;;;;;5033344;28;20478;-77
2023/01/22 00:47:19;;;;;;;18.98;12.80;;;1.70;99.90;;;;;;5028262;28;20107;-76
2023/01/22 00:49:45;;;;;;;23.73;12.98;;;1.70;99.90;;;;;;5037622;28;20080;-76
2023/01/22 00:52:11;;;;;;;18.17;11.90;;;1.70;99.90;;;;;;5055482;28;20447;-76
2023/01/22 00:54:37;;;;;;;20.13;12.70;;;1.70;99.90;;;;;;5054853;28;20045;-76
2023/01/22 00:57:02;;;;;;;22.40;12.60;;;1.70;99.90;;;;;;5054530;28;20045;-76
2023/01/22 00:59:28;;;;;;;21.48;13.00;;;1.80;99.90;;;;;;5020615;28;20481;-77
2023/01/22 01:01:54;;;;;;;19.58;12.77;;;1.70;99.90;;;;;;5037706;28;20474;-76
2023/01/22 01:04:20;;;;;;;19.33;12.05;;;2.70;99.90;;;;;;5054609;28;20044;-76
2023/01/22 01:06:45;;;;;;;22.15;13.02;;;2.70;99.90;;;;;;5035671;28;20037;-76
2023/01/22 01:09:11;;;;;;;19.85;12.90;;;1.80;99.90;;;;;;5035442;28;20045;-76
2023/01/22 01:11:37;;;;;;;19.38;13.07;;;1.80;99.90;;;;;;5022306;28;20033;-76
2023/01/22 01:14:03;;;;;;;20.00;13.50;;;1.70;99.90;;;;;;5016516;28;20060;-76
2023/01/22 01:16:30;;;;;;;20.30;13.07;;;1.80;99.90;;;;;;5041071;28;20049;-76
2023/01/22 01:19:01;;;;;;;19.88;13.02;;;1.80;99.90;;;;;;5037118;28;20132;-76
2023/01/22 01:21:28;;;;;;;20.73;13.93;;;1.80;99.90;;;;;;5018244;28;20481;-77
2023/01/22 01:23:55;;;;;;;22.30;13.30;;;1.80;99.90;;;;;;5034499;28;20042;-76
2023/01/22 01:26:21;;;;;;;19.65;12.63;;;3.30;99.90;;;;;;5019714;28;20145;-76
2023/01/22 01:28:47;;;;;;;21.48;13.30;;;3.50;99.90;;;;;;5054321;28;20556;-77
2023/01/22 01:31:15;;;;;;;17.88;12.85;;;1.90;99.90;;;;;;5051005;28;20041;-76
2023/01/22 01:33:41;;;;;;;20.42;12.60;;;1.90;99.90;;;;;;5036451;28;20095;-76
2023/01/22 01:36:11;;;;;;;18.13;12.98;;;1.90;99.90;;;;;;5045773;28;20037;-77
2023/01/22 01:38:37;;;;;;;18.67;13.02;;;1.90;99.90;;;;;;5034318;28;20558;-76
2023/01/22 01:41:03;;;;;;;17.30;12.35;;;1.80;99.90;;;;;;5047889;28;20048;-76
2023/01/22 01:43:29;;;;;;;18.63;13.25;;;1.80;99.90;;;;;;5054145;28;20412;-76
2023/01/22 01:46:01;;;;;;;20.83;13.57;;;1.80;99.90;;;;;;5054654;28;20041;-76
2023/01/22 01:48:38;;;;;;;21.08;13.05;;;1.80;99.90;;;;;;5027085;28;20408;-76
2023/01/22 01:51:09;;;;;;;18.60;12.77;;;1.90;99.90;;;;;;5034670;28;20410;-76
2023/01/22 01:53:35;;;;;;;21.00;14.15;;;1.80;99.90;;;;;;5050378;28;20116;-76
2023/01/22 01:56:04;;;;;;;25.88;15.00;;;1.90;99.90;;;;;;5019764;28;20096;-76
2023/01/22 01:58:32;;;;;;;24.55;16.65;;;2.30;99.90;;;;;;5036560;28;20072;-77
2023/01/22 02:01:04;;;;;;;28.83;17.40;;;1.80;99.90;;;;;;5054370;28;20045;-76
2023/01/22 02:03:29;;;;;;;24.90;15.70;;;1.80;99.90;;;;;;5036289;28;20346;-76
2023/01/22 02:05:56;;;;;;;23.42;15.13;;;1.90;99.90;;;;;;5053989;28;20041;-76
2023/01/22 02:08:22;;;;;;;26.52;15.63;;;1.90;99.90;;;;;;5020229;28;20060;-76
2023/01/22 02:10:48;;;;;;;28.30;16.38;;;1.90;99.90;;;;;;5017170;28;20037;-76
2023/01/22 02:13:21;;;;;;;27.50;16.52;;;1.90;99.90;;;;;;5053520;28;20107;-76
2023/01/22 02:15:47;;;;;;;25.33;15.85;;;2.00;99.90;;;;;;5018781;28;20397;-76
2023/01/22 02:18:12;;;;;;;22.10;14.95;;;1.90;99.90;;;;;;5016307;28;20045;-76
2023/01/22 02:20:39;;;;;;;27.60;15.93;;;2.00;99.90;;;;;;5047431;28;20084;-76
2023/01/22 02:23:06;;;;;;;25.00;14.88;;;2.00;99.90;;;;;;5027724;28;20041;-76
2023/01/22 02:25:32;;;;;;;21.92;14.30;;;2.00;99.90;;;;;;5035717;28;20108;-77
2023/01/22 02:27:59;;;;;;;21.48;13.57;;;2.00;99.90;;;;;;5017725;28;20103;-76
2023/01/22 02:30:25;;;;;;;21.42;12.68;;;2.00;99.90;;;;;;5032357;28;20440;-76
2023/01/22 02:32:50;;;;;;;20.63;12.20;;;2.10;99.90;;;;;;5026343;28;20045;-76
2023/01/22 02:35:16;;;;;;;19.58;12.50;;;2.10;99.90;;;;;;5034872;28;20041;-76
2023/01/22 02:37:42;;;;;;;28.40;13.20;;;2.50;99.90;;;;;;5041089;28;20402;-77
2023/01/22 02:40:08;;;;;;;19.92;12.07;;;2.10;99.90;;;;;;5045306;28;20150;-77
2023/01/22 02:42:34;;;;;;;17.88;11.52;;;2.10;99.90;;;;;;5015194;28;20049;-76
2023/01/22 02:44:59;;;;;;;21.33;11.93;;;2.10;99.90;;;;;;5026168;28;20124;-77
2023/01/22 02:47:25;;;;;;;19.55;11.60;;;2.10;99.90;;;;;;5034913;28;20041;-76
2023/01/22 02:49:50;;;;;;;16.55;10.93;;;2.10;99.90;;;;;;5033367;28;20052;-76
2023/01/22 02:52:16;;;;;;;18.00;10.82;;;2.20;99.90;;;;;;5033085;28;20458;-76
2023/01/22 02:54:41;;;;;;;17.60;10.50;;;2.10;99.90;;;;;;5015238;28;20073;-77
2023/01/22 02:57:07;;;;;;;17.73;10.40;;;2.20;99.90;;;;;;5043464;28;20127;-76
2023/01/22 02:59:34;;;;;;;16.55;10.13;;;2.60;99.90;;;;;;5018553;28;20511;-76
2023/01/22 03:01:59;;;;;;;16.17;10.00;;;2.20;99.90;;;;;;5034193;28;20291;-76
2023/01/22 03:04:26;;;;;;;16.70;9.02;;;2.10;99.90;;;;;;5034699;28;20546;-76
2023/01/22 03:06:51;;;;;;;15.05;8.52;;;2.10;99.90;;;;;;5035544;28;20124;-76
2023/01/22 03:09:17;;;;;;;15.05;8.35;;;2.10;99.90;;;;;;5035039;28;20128;-76
2023/01/22 03:11:45;;;;;;;12.73;7.40;;;2.10;99.90;;;;;;5051240;28;20044;-76
2023/01/22 03:22:24;;;;;;;12.75;6.38;;;2.00;99.90;;;;;;5046036;28;20041;-76
2023/01/22 03:24:51;;;;;;;9.82;6.07;;;2.00;99.90;;;;;;5015114;28;20060;-76
2023/01/22 03:27:18;;;;;;;11.95;6.75;;;2.10;99.90;;;;;;5010399;28;20049;-76
2023/01/22 03:29:44;;;;;;;9.73;5.82;;;2.10;99.90;;;;;;5034683;28;20052;-76
2023/01/22 03:32:10;;;;;;;11.13;6.15;;;2.30;99.90;;;;;;4999473;28;20042;-76
2023/01/22 03:34:36;;;;;;;10.77;5.82;;;2.20;99.90;;;;;;5032391;28;20053;-75
2023/01/22 03:37:02;;;;;;;10.10;6.40;;;2.20;99.90;;;;;;5047528;28;20049;-75
2023/01/22 03:39:29;;;;;;;10.70;6.43;;;2.30;99.90;;;;;;5047445;28;20040;-75
2023/01/22 03:41:57;;;;;;;10.55;5.80;;;2.80;99.90;;;;;;5040301;28;20402;-75
2023/01/22 03:44:23;;;;;;;13.15;5.88;;;2.30;99.90;;;;;;5050327;28;20041;-75
2023/01/22 03:46:49;;;;;;;8.82;5.60;;;4.00;99.90;;;;;;5016026;28;20041;-75
2023/01/22 03:49:15;;;;;;;10.82;5.20;;;2.20;99.90;;;;;;5021934;28;20398;-75
2023/01/22 03:51:41;;;;;;;13.50;6.10;;;2.20;99.90;;;;;;4998668;28;20187;-75
2023/01/22 03:54:10;;;;;;;11.85;5.85;;;2.20;99.90;;;;;;5035490;28;20044;-75
2023/01/22 03:56:36;;;;;;;8.73;5.43;;;2.20;99.90;;;;;;5034360;28;20037;-75
2023/01/22 03:59:03;;;;;;;11.55;5.53;;;2.30;99.90;;;;;;5052325;28;20045;-75
2023/01/22 04:01:29;;;;;;;11.30;5.43;;;2.30;99.90;;;;;;5034429;28;20470;-75
2023/01/22 04:03:55;;;;;;;8.52;5.03;;;2.30;99.90;;;;;;5034391;28;20198;-75
2023/01/22 04:06:22;;;;;;;10.45;4.85;;;3.50;99.90;;;;;;5034524;28;20049;-75
2023/01/22 04:08:49;;;;;;;9.93;5.50;;;2.40;99.90;;;;;;5044389;28;20045;-75
2023/01/22 04:11:16;;;;;;;8.23;4.70;;;2.30;99.90;;;;;;5033974;28;20045;-75
2023/01/22 04:13:43;;;;;;;12.50;4.75;;;2.30;99.90;;;;;;5051184;28;20061;-75
2023/01/22 04:16:10;;;;;;;10.40;5.28;;;2.30;99.90;;;;;;5019598;28;20177;-75
2023/01/22 04:18:35;;;;;;;9.70;5.57;;;2.30;99.90;;;;;;5034435;28;20484;-75
2023/01/22 04:21:01;;;;;;;10.48;5.32;;;2.30;99.90;;;;;;5048051;28;20069;-75
2023/01/22 04:23:26;;;;;;;8.98;5.00;;;2.20;99.90;;;;;;5014908;28;20438;-75
2023/01/22 04:25:52;;;;;;;11.68;5.57;;;2.30;99.90;;;;;;5033017;28;20359;-75
2023/01/22 04:28:19;;;;;;;8.85;5.45;;;2.30;99.90;;;;;;5037967;28;20069;-75
2023/01/22 04:30:46;;;;;;;7.82;5.25;;;2.30;99.90;;;;;;5032680;28;20042;-75
2023/01/22 04:33:12;;;;;;;10.18;5.50;;;2.30;99.90;;;;;;5029414;28;20085;-75
2023/01/22 04:35:38;;;;;;;11.43;5.07;;;2.30;99.90;;;;;;5035135;28;20077;-75
2023/01/22 04:38:05;;;;;;;9.40;5.47;;;2.30;99.90;;;;;;5031117;28;20049;-75
2023/01/22 04:40:31;;;;;;;8.55;5.00;;;2.40;99.90;;;;;;5016312;28;20124;-75
2023/01/22 04:43:05;;;;;;;8.88;4.88;;;2.40;99.90;;;;;;5016838;28;20053;-75
2023/01/22 04:45:31;;;;;;;7.68;5.38;;;2.40;99.90;;;;;;5025984;28;20068;-75
2023/01/22 04:47:57;;;;;;;7.63;5.20;;;2.40;99.90;;;;;;5050170;28;20056;-75
2023/01/22 04:50:26;;;;;;;7.82;5.10;;;2.40;99.90;;;;;;5034388;28;20429;-75
2023/01/22 04:52:54;;;;;;;9.65;5.43;;;2.40;99.90;;;;;;5035348;28;20560;-75
2023/01/22 04:55:20;;;;;;;7.60;5.10;;;2.40;99.90;;;;;;5035529;28;20087;-75
2023/01/22 04:57:46;;;;;;;6.88;4.90;;;2.50;99.90;;;;;;5026128;28;20041;-75
2023/01/22 05:00:12;;;;;;;10.05;5.47;;;2.40;99.90;;;;;;5055450;28;20037;-75
2023/01/22 05:02:38;;;;;;;8.43;5.30;;;2.50;99.90;;;;;;5055484;28;20393;-75
2023/01/22 05:05:05;;;;;;;7.45;4.53;;;2.40;99.90;;;;;;5020765;28;20103;-75
2023/01/22 05:07:31;;;;;;;7.15;4.97;;;2.50;99.90;;;;;;5055020;28;20536;-75
2023/01/22 05:09:57;;;;;;;10.32;4.70;;;2.40;99.90;;;;;;5034761;28;20048;-76
2023/01/22 05:12:23;;;;;;;7.55;4.65;;;2.50;99.90;;;;;;5034664;28;20036;-76
2023/01/22 05:14:48;;;;;;;10.98;4.97;;;2.60;99.90;;;;;;5039805;28;20095;-76
2023/01/22 05:17:16;;;;;;;8.05;4.38;;;4.10;99.90;;;;;;5037044;28;20049;-75
2023/01/22 05:19:41;;;;;;;7.30;4.40;;;2.60;99.90;;;;;;5054850;28;20132;-76
2023/01/22 05:22:07;;;;;;;8.25;4.68;;;3.40;99.90;;;;;;5044116;28;20124;-76
2023/01/22 05:24:33;;;;;;;8.88;4.95;;;2.50;99.90;;;;;;5019874;28;20038;-75
2023/01/22 05:26:58;;;;;;;7.28;4.25;;;3.20;99.90;;;;;;5019338;28;20041;-76
2023/01/22 05:29:25;;;;;;;6.82;4.53;;;3.10;99.90;;;;;;5052190;28;20044;-76
2023/01/22 05:31:54;;;;;;;8.13;4.28;;;2.50;99.90;;;;;;5053355;28;20052;-76
2023/01/22 05:34:20;;;;;;;9.15;5.03;;;2.50;99.90;;;;;;5038305;28;20041;-76
2023/01/22 05:36:46;;;;;;;10.68;4.68;;;2.50;99.90;;;;;;5045470;28;20115;-76
2023/01/22 05:39:12;;;;;;;7.63;4.80;;;2.50;99.90;;;;;;5043052;28;20100;-76
2023/01/22 05:41:37;;;;;;;10.02;5.28;;;2.50;99.90;;;;;;5024509;28;20037;-76
2023/01/22 05:44:04;;;;;;;7.18;4.70;;;2.40;99.90;;;;;;5013484;28;20343;-76
2023/01/22 05:46:30;;;;;;;8.27;4.70;;;2.50;99.90;;;;;;5054305;28;20080;-76
2023/01/22 05:48:57;;;;;;;8.02;4.75;;;2.50;99.90;;;;;;5053962;28;20045;-76
2023/01/22 05:51:23;;;;;;;8.05;4.72;;;2.50;99.90;;;;;;5036372;28;20041;-75
2023/01/22 05:53:49;;;;;;;10.80;5.18;;;2.40;99.90;;;;;;5054171;28;20124;-75
2023/01/22 05:56:15;;;;;;;8.63;4.90;;;2.50;99.90;;;;;;5029929;28;20508;-76
2023/01/22 05:58:40;;;;;;;9.40;4.88;;;2.50;99.90;;;;;;5034496;28;20049;-76
2023/01/22 06:01:06;;;;;;;8.77;4.78;;;2.50;99.90;;;;;;5024046;28;20043;-76
2023/01/22 06:03:32;;;;;;;8.60;4.57;;;2.50;99.90;;;;;;5053510;28;20120;-76
2023/01/22 06:06:03;;;;;;;6.07;4.45;;;2.50;99.90;;;;;;5035699;28;20472;-76
2023/01/22 06:08:28;;;;;;;6.75;4.60;;;3.90;99.90;;;;;;5054012;28;20049;-76
2023/01/22 06:11:04;;;;;;;6.47;4.10;;;2.50;99.90;;;;;;5021457;28;20390;-76
2023/01/22 06:13:32;;;;;;;7.20;4.10;;;2.50;99.90;;;;;;5023792;28;20053;-76
2023/01/22 06:15:58;;;;;;;8.52;4.28;;;2.50;99.90;;;;;;5016012;28;20038;-76
2023/01/22 06:18:24;;;;;;;7.50;4.30;;;2.50;99.90;;;;;;5018662;28;20132;-76
2023/01/22 06:20:50;;;;;;;8.80;4.55;;;2.50;99.90;;;;;;5031559;28;20127;-76
2023/01/22 06:23:17;;;;;;;9.02;4.65;;;2.50;99.90;;;;;;5032962;28;20581;-76
2023/01/22 06:25:43;;;;;;;9.48;4.40;;;2.40;99.90;;;;;;5015043;28;20076;-76
2023/01/22 06:28:09;;;;;;;10.48;4.93;;;2.50;99.90;;;;;;5052217;28;20056;-76
2023/01/22 06:30:35;;;;;;;8.50;4.47;;;2.40;99.90;;;;;;5050301;28;20033;-76
2023/01/22 06:33:01;;;;;;;6.50;4.68;;;2.40;99.90;;;;;;5034970;28;20041;-76
2023/01/22 06:35:27;;;;;;;8.07;4.93;;;2.50;99.90;;;;;;5026304;28;20497;-76
2023/01/22 06:37:52;;;;;;;9.70;5.30;;;2.40;99.90;;;;;;5033147;28;20041;-76
2023/01/22 06:40:18;;;;;;;6.18;4.78;;;2.40;99.90;;;;;;5044198;28;20124;-76
2023/01/22 06:42:44;;;;;;;7.70;4.70;;;2.40;99.90;;;;;;5018833;28;20049;-76
2023/01/22 06:45:10;;;;;;;7.30;4.93;;;2.40;99.90;;;;;;5053285;28;20044;-76
2023/01/22 06:47:35;;;;;;;10.23;5.45;;;2.40;99.90;;;;;;5052807;28;20044;-76
2023/01/22 06:50:01;;;;;;;10.27;5.82;;;2.40;99.90;;;;;;5035412;28;20087;-76
2023/01/22 06:52:27;;;;;;;8.98;5.50;;;2.30;99.90;;;;;;5053286;28;20522;-76
2023/01/22 06:54:52;;;;;;;7.95;5.20;;;2.30;99.90;;;;;;5034292;28;20599;-76
2023/01/22 06:57:18;;;;;;;7.05;5.00;;;2.30;99.90;;;;;;5018886;28;20076;-76
2023/01/22 06:59:43;;;;;;;7.25;5.50;;;2.30;99.90;;;;;;5053175;28;20037;-77
2023/01/22 07:02:19;;;;;;;8.35;5.90;;;3.10;99.90;;;;;;5053042;28;20077;-76
2023/01/22 07:04:44;;;;;;;9.13;5.90;;;2.20;99.90;;;;;;5035208;28;20053;-76
2023/01/22 07:07:10;;;;;;;10.43;6.10;;;2.20;99.90;;;;;;5018852;28;20179;-76
2023/01/22 07:09:36;;;;;;;9.65;5.97;;;2.20;99.90;;;;;;5053306;28;20041;-76
2023/01/22 07:12:02;;;;;;;6.85;5.47;;;2.20;99.90;;;;;;5032688;28;20044;-76
2023/01/22 07:14:29;;;;;;;12.23;6.35;;;2.20;99.90;;;;;;5032508;28;20567;-76
2023/01/22 07:16:55;;;;;;;8.30;6.28;;;3.20;99.90;;;;;;5000054;28;20050;-76
2023/01/22 07:19:21;;;;;;;8.50;6.07;;;2.20;99.90;;;;;;5024361;28;20107;-76
2023/01/22 07:21:47;;;;;;;8.25;6.20;;;2.20;99.90;;;;;;5037419;28;20041;-76
2023/01/22 07:24:13;;;;;;;10.70;6.20;;;2.20;99.90;;;;;;5051790;28;20171;-76
2023/01/22 07:26:38;;;;;;;11.02;5.97;;;2.10;99.90;;;;;;5052770;28;20033;-76
2023/01/22 07:29:04;;;;;;;8.10;6.15;;;2.20;99.90;;;;;;5049056;28;20055;-76
2023/01/22 07:31:30;;;;;;;9.50;6.00;;;2.30;99.90;;;;;;5052446;28;20041;-76
2023/01/22 07:33:56;;;;;;;10.38;6.88;;;2.20;99.90;;;;;;5044318;28;20072;-76
2023/01/22 07:36:22;;;;;;;8.85;6.22;;;2.10;99.90;;;;;;5026954;28;20482;-76
2023/01/22 07:38:47;;;;;;;9.73;6.15;;;2.20;99.90;;;;;;5033944;28;20087;-75
2023/01/22 07:41:14;;;;;;;7.50;5.72;;;2.20;99.90;;;;;;5034622;28;20490;-76
2023/01/22 07:43:39;;;;;;;9.65;6.32;;;2.20;99.90;;;;;;5034919;28;20089;-75
2023/01/22 07:46:06;;;;;;;10.05;6.47;;;2.20;99.90;;;;;;5033612;28;20462;-77
2023/01/22 07:48:32;;;;;;;9.23;5.95;;;2.10;99.90;;;;;;5024219;28;20061;-76
2023/01/22 07:50:59;;;;;;;8.52;6.45;;;2.10;99.90;;;;;;5018889;28;20041;-76
2023/01/22 07:53:25;;;;;;;8.75;6.40;;;2.20;99.90;;;;;;5014714;28;20128;-75
2023/01/22 07:55:50;;;;;;;8.40;6.55;;;2.10;99.90;;;;;;5050883;28;20541;-76
2023/01/22 07:58:16;;;;;;;7.30;6.07;;;2.10;99.90;;;;;;5033985;28;20052;-75
2023/01/22 08:00:41;;;;;;;8.13;6.30;;;2.10;99.90;;;;;;5052430;28;20441;-75
2023/01/22 08:03:09;;;;;;;9.40;6.63;;;3.00;99.90;;;;;;5050887;28;20040;-76
2023/01/22 08:05:38;;;;;;;9.23;6.60;;;2.00;99.90;;;;;;5050761;28;20075;-76
2023/01/22 08:08:05;;;;;;;8.13;6.28;;;2.10;99.90;;;;;;5036385;28;20102;-76
2023/01/22 08:10:31;;;;;;;10.18;6.60;;;2.00;99.90;;;;;;5026821;28;20059;-76
2023/01/22 08:12:56;;;;;;;10.40;6.28;;;2.00;99.90;;;;;;5056079;28;20053;-76
2023/01/22 08:15:22;;;;;;;9.57;6.80;;;2.00;99.90;;;;;;5034869;28;20064;-76
2023/01/22 08:17:49;;;;;;;9.38;6.28;;;2.00;99.90;;;;;;5055413;28;20067;-76
2023/01/22 08:20:16;;;;;;;8.18;5.80;;;2.80;99.90;;;;;;5018977;28;20077;-76
2023/01/22 08:22:42;;;;;;;9.63;6.00;;;2.00;99.90;;;;;;5035746;28;20482;-76
2023/01/22 08:25:08;;;;;;;11.32;6.35;;;3.40;99.90;;;;;;5035139;28;20042;-76
2023/01/22 08:27:34;;;;;;;8.95;6.07;;;2.10;99.90;;;;;;5037955;28;20044;-75
2023/01/22 08:30:02;;;;;;;12.88;6.70;;;2.40;99.90;;;;;;5026023;28;20119;-76
2023/01/22 08:32:28;;;;;;;8.35;5.75;;;3.70;99.90;;;;;;5055294;28;20051;-75
2023/01/22 08:34:54;;;;;;;7.55;5.80;;;3.50;99.90;;;;;;5024247;28;20171;-76
2023/01/22 08:37:23;;;;;;;9.48;6.22;;;2.10;99.90;;;;;;5016761;28;20146;-75
2023/01/22 08:39:49;;;;;;;10.98;6.40;;;2.10;99.90;;;;;;5018283;28;20162;-76
2023/01/22 08:42:15;;;;;;;10.25;6.30;;;3.60;99.90;;;;;;5001658;28;20053;-76
2023/01/22 08:44:40;;;;;;;11.52;6.72;;;2.10;99.90;;;;;;5001478;28;20045;-76
2023/01/22 08:47:06;;;;;;;7.57;5.75;;;2.10;99.90;;;;;;5031334;28;20048;-76
2023/01/22 08:49:32;;;;;;;8.65;6.78;;;2.10;99.90;;;;;;5037176;28;20095;-76
2023/01/22 08:51:57;;;;;;;9.70;6.53;;;2.10;99.90;;;;;;5037799;28;20037;-76
2023/01/22 08:54:25;;;;;;;10.55;6.68;;;2.20;99.90;;;;;;5055235;28;20044;-76
2023/01/22 08:56:51;;;;;;;9.43;6.75;;;2.00;99.90;;;;;;5042352;28;20140;-74
2023/01/22 08:59:16;;;;;;;8.73;6.18;;;2.00;99.90;;;;;;5055141;28;20119;-75
2023/01/22 09:01:42;;;;;;;10.43;6.32;;;2.10;99.90;;;;;;5021310;28;20045;-76
2023/01/22 09:04:09;;;;;;;10.85;6.43;;;2.10;99.90;;;;;;5036964;28;20123;-76
2023/01/22 09:06:36;;;;;;;11.60;7.15;;;2.10;99.90;;;;;;5036593;28;20166;-76
2023/01/22 09:09:03;;;;;;;9.32;6.30;;;3.80;99.90;;;;;;5054711;28;20080;-76
2023/01/22 09:11:29;;;;;;;9.27;6.82;;;2.10;99.90;;;;;;5055400;28;20076;-76
2023/01/22 09:13:55;;;;;;;10.45;6.88;;;2.10;99.90;;;;;;5054398;28;20056;-76
2023/01/22 09:16:26;;;;;;;9.27;5.68;;;2.20;99.90;;;;;;5036981;28;20092;-76
2023/01/22 09:18:52;;;;;;;9.68;5.63;;;3.40;99.90;;;;;;5054468;28;20119;-76
2023/01/22 09:21:18;;;;;;;7.65;5.38;;;2.30;99.90;;;;;;5035606;28;20076;-76
2023/01/22 09:23:44;;;;;;;8.57;5.70;;;3.70;99.90;;;;;;5054592;28;20462;-76
2023/01/22 09:26:10;;;;;;;8.88;6.03;;;2.50;99.90;;;;;;5036842;28;20044;-76
2023/01/22 09:28:36;;;;;;;8.85;5.50;;;2.50;99.90;;;;;;5050931;28;20033;-74
2023/01/22 09:31:02;;;;;;;9.45;5.75;;;3.00;99.90;;;;;;5045240;28;20044;-76
2023/01/22 09:33:29;;;;;;;10.35;5.93;;;2.80;99.90;;;;;;5052688;28;20037;-76
2023/01/22 09:36:09;;;;;;;9.82;6.57;;;3.10;99.90;;;;;;5043198;28;20543;-76
2023/01/22 09:38:34;;;;;;;9.95;5.38;;;4.10;99.90;;;;;;5053124;28;20033;-77
2023/01/22 09:41:03;;;;;;;7.68;5.35;;;3.50;99.90;;;;;;5038442;28;20053;-76
2023/01/22 09:43:49;;;;;;;8.18;5.70;;;3.60;99.90;;;;;;5033230;28;20075;-76
2023/01/22 09:46:27;;;;;;;8.13;5.70;;;3.80;99.90;;;;;;5044248;28;20042;-73
2023/01/22 09:48:59;;;;;;;9.73;5.30;;;3.90;99.90;;;;;;5048284;28;20053;-73
2023/01/22 09:51:24;;;;;;;8.90;5.90;;;4.10;99.90;;;;;;5038343;28;20077;-73
2023/01/22 09:53:58;;;;;;;9.90;5.55;;;4.00;99.90;;;;;;5053628;28;20072;-73
2023/01/22 09:56:57;;;;;;;9.38;5.68;;;3.90;99.90;;;;;;5053629;28;20508;-77
2023/01/22 09:59:31;;;;;;;8.18;5.20;;;3.80;99.90;;;;;;5031119;28;20045;-75
2023/01/22 10:02:02;;;;;;;9.70;5.60;;;3.80;99.90;;;;;;5051152;28;20135;-76
2023/01/22 10:04:30;;;;;;;8.50;5.85;;;3.80;99.90;;;;;;5042571;28;20034;-75
2023/01/22 10:06:59;;;;;;;11.48;6.25;;;3.70;99.90;;;;;;5032874;28;20041;-74
2023/01/22 10:09:29;;;;;;;8.10;5.80;;;3.70;99.90;;;;;;5033404;28;20060;-75
2023/01/22 10:11:57;;;;;;;8.65;6.05;;;3.70;99.90;;;;;;5034280;28;20124;-75
2023/01/22 10:14:26;;;;;;;7.53;5.72;;;3.60;99.90;;;;;;5042828;28;20061;-74
2023/01/22 10:16:52;;;;;;;9.38;5.90;;;3.60;99.90;;;;;;5036366;28;20041;-74
2023/01/22 10:19:24;;;;;;;9.18;6.03;;;3.60;99.90;;;;;;5041396;28;20046;-74
2023/01/22 10:21:55;;;;;;;10.93;5.93;;;3.60;99.90;;;;;;5037183;28;20053;-74
2023/01/22 10:24:20;;;;;;;9.68;5.85;;;3.60;99.90;;;;;;5054840;28;20409;-74
2023/01/22 10:26:54;;;;;;;10.15;5.72;;;3.50;99.90;;;;;;5040771;28;20043;-76
2023/01/22 10:29:23;;;;;;;8.23;6.00;;;4.40;99.90;;;;;;5053193;28;20102;-75
2023/01/22 10:31:53;;;;;;;9.70;5.88;;;3.60;99.90;;;;;;5053437;28;20051;-76
2023/01/22 10:34:42;;;;;;;7.93;5.75;;;3.50;99.90;;;;;;5034038;28;20059;-76
2023/01/22 10:37:15;;;;;;;9.50;5.82;;;3.50;99.90;;;;;;5033592;28;20532;-76
2023/01/22 10:39:49;;;;;;;10.27;6.05;;;3.50;99.90;;;;;;5018869;28;20049;-76
2023/01/22 10:42:24;;;;;;;9.50;5.55;;;3.50;99.90;;;;;;5035412;28;20045;-76
2023/01/22 10:44:55;;;;;;;9.43;5.40;;;3.50;99.90;;;;;;5053198;28;20125;-76
2023/01/22 10:47:23;;;;;;;7.82;5.43;;;3.50;99.90;;;;;;5018470;28;20041;-76
2023/01/22 10:50:05;;;;;;;6.75;4.93;;;4.20;99.90;;;;;;5035426;28;20056;-76
2023/01/22 10:52:50;;;;;;;7.90;4.88;;;3.60;99.90;;;;;;5035344;28;20126;-76
2023/01/22 10:55:22;;;;;;;8.07;5.00;;;3.60;99.90;;;;;;5038462;28;20059;-76
2023/01/22 10:57:53;;;;;;;6.70;4.80;;;3.60;99.90;;;;;;5033628;28;20051;-75
2023/01/22 11:00:20;;;;;;;8.18;5.05;;;3.60;99.90;;;;;;5042555;28;20047;-76
2023/01/22 11:02:47;;;;;;;7.10;4.80;;;3.60;99.90;;;;;;5054803;28;20401;-75
2023/01/22 11:05:24;;;;;;;8.90;5.25;;;5.40;99.90;;;;;;5049910;28;20048;-75
2023/01/22 11:08:11;;;;;;;9.25;5.30;;;3.60;99.90;;;;;;5056002;28;20127;-76
2023/01/22 11:10:50;;;;;;;9.02;5.43;;;3.70;99.90;;;;;;5072622;28;20045;-75
2023/01/22 11:14:14;;;;;;;11.20;5.60;;;4.10;99.90;;;;;;5072348;28;20148;-75
2023/01/22 11:16:42;;;;;;;7.47;5.30;;;3.80;99.90;;;;;;5010858;28;20049;-73
2023/01/22 11:19:13;;;;;;;7.85;5.68;;;3.80;99.90;;;;;;5042643;28;20060;-74
2023/01/22 11:21:46;;;;;;;8.77;5.57;;;5.10;99.90;;;;;;5072883;28;20040;-75
2023/01/22 11:24:18;;;;;;;9.93;5.38;;;3.70;99.90;;;;;;5052219;28;20048;-73
2023/01/22 11:27:18;;;;;;;7.43;5.43;;;3.80;99.90;;;;;;5054633;28;20049;-72
2023/01/22 11:29:51;;;;;;;8.98;5.35;;;3.80;99.90;;;;;;5053560;28;20060;-74
2023/01/22 11:32:35;;;;;;;7.32;5.20;;;3.80;99.90;;;;;;5069323;28;20048;-73
2023/01/22 11:35:10;;;;;;;8.75;5.20;;;3.80;99.90;;;;;;5063336;28;20037;-75
2023/01/22 11:37:51;;;;;;;8.70;5.40;;;3.80;99.90;;;;;;5016774;28;20053;-74
2023/01/22 11:40:54;;;;;;;7.30;5.18;;;3.90;99.90;;;;;;5019777;28;20053;-76
2023/01/22 11:43:38;;;;;;;7.13;5.30;;;4.00;99.90;;;;;;5064075;28;20083;-75
2023/01/22 11:46:13;;;;;;;11.38;5.97;;;4.30;99.90;;;;;;5076171;28;20106;-74
2023/01/22 11:49:04;;;;;;;9.50;5.57;;;4.10;99.90;;;;;;5057924;28;20052;-74
2023/01/22 11:51:56;;;;;;;7.78;5.35;;;4.30;99.90;;;;;;5039861;28;20118;-69
2023/01/22 11:55:18;;;;;;;11.68;6.20;;;4.30;99.90;;;;;;5071997;28;20415;-69
2023/01/22 11:58:18;;;;;;;7.07;4.95;;;4.30;99.90;;;;;;4996177;28;20063;-71
2023/01/22 12:00:50;;;;;;;10.02;5.47;;;6.00;99.90;;;;;;5067667;28;20561;-70
2023/01/22 12:03:31;;;;;;;10.10;5.55;;;4.40;99.90;;;;;;5053763;28;20049;-70
2023/01/22 12:06:38;;;;;;;8.18;4.82;;;4.50;99.90;;;;;;5053399;28;20052;-70
2023/01/22 12:09:06;;;;;;;8.48;5.22;;;4.60;99.90;;;;;;5054386;28;20149;-70
2023/01/22 12:11:37;;;;;;;7.55;5.32;;;4.70;99.90;;;;;;5053952;28;20044;-71
2023/01/22 12:14:31;;;;;;;9.05;5.78;;;4.80;99.90;;;;;;5071962;28;20083;-71
2023/01/22 12:17:22;;;;;;;8.05;5.35;;;4.90;99.90;;;;;;5054688;28;20048;-70
2023/01/22 12:20:10;;;;;;;8.15;5.40;;;4.90;99.90;;;;;;5051753;28;20477;-70
2023/01/22 12:22:47;;;;;;;8.32;5.32;;;4.90;99.90;;;;;;5071082;28;20257;-71
2023/01/22 12:25:30;;;;;;;8.00;4.80;;;5.20;99.90;;;;;;5036016;28;20082;-70
2023/01/22 12:28:03;;;;;;;8.35;4.85;;;4.90;99.90;;;;;;5051505;28;20052;-70
2023/01/22 12:30:44;;;;;;;8.05;5.07;;;4.90;99.90;;;;;;5068198;28;20042;-75
2023/01/22 12:33:17;;;;;;;10.68;5.28;;;4.80;99.90;;;;;;5053780;28;20049;-74
2023/01/22 12:35:44;;;;;;;7.53;4.90;;;5.20;99.90;;;;;;5054798;28;20037;-75
2023/01/22 12:38:14;;;;;;;7.00;4.57;;;5.10;99.90;;;;;;5075217;28;20048;-75
2023/01/22 12:40:58;;;;;;;8.95;5.10;;;5.50;99.90;;;;;;5055644;28;20048;-75
2023/01/22 12:43:36;;;;;;;7.53;4.82;;;4.60;99.90;;;;;;5057198;28;20048;-73
2023/01/22 12:46:06;;;;;;;10.95;5.38;;;4.60;99.90;;;;;;5073902;28;20055;-75
2023/01/22 12:48:45;;;;;;;7.95;5.03;;;4.80;99.90;;;;;;5040511;28;20040;-75
2023/01/22 12:51:43;;;;;;;8.43;5.22;;;4.40;99.90;;;;;;5074615;28;20045;-75
2023/01/22 12:54:32;;;;;;;10.30;5.40;;;4.40;99.90;;;;;;5040187;28;20067;-75
2023/01/22 12:57:13;;;;;;;9.45;5.50;;;4.30;99.90;;;;;;5049196;28;20052;-75
2023/01/22 12:59:50;;;;;;;9.77;5.28;;;4.30;99.90;;;;;;5057245;28;20044;-76
2023/01/22 13:02:25;;;;;;;8.98;5.45;;;5.50;99.90;;;;;;5058114;28;20319;-75
2023/01/22 13:04:54;;;;;;;7.93;5.50;;;4.30;99.90;;;;;;5075210;28;20460;-74
2023/01/22 13:07:31;;;;;;;8.90;5.40;;;5.40;99.90;;;;;;5057035;28;20041;-75
2023/01/22 13:10:05;;;;;;;9.15;5.30;;;4.40;99.90;;;;;;5057136;28;20048;-75